• Join FlightAware (Why Join?)
  • Login
  • US Flag 
02:44AM EDT


 

Airport Tracker/Info


-or-


 

Live Flight TrackerFlight Track Log ✈ AWE1940 ✈ 08-Jun-2013 ✈ KCLT - KALB

Flight Track Log - Related Links

Times and Time Zones

All times are in EDT time to prevent confusion due to time zone crossing. See the AWE1940 flight status page for this flight to view local times or setup timezone preferences in your user account.

Time Position Orientation Groundspeed Altitude Reporting Facility
EDT Latitude Longitude Course Direction KTS MPH feet Rate Location/Type
10:24PM 35.1928 -80.9331 72° East 157 181 1,700  Level Atlanta Center
10:25PM 35.1489 -80.9297 176° South 195 224 3,000 1,800 Climbing Atlanta Center
10:26PM 35.1014 -80.8706 134° Southeast 268 308 5,000 2,520 Climbing Atlanta Center
10:28PM 35.2502 -80.5309 30° Northeast  Level FlightAware Approximate
10:28PM 35.1042 -80.7308 89° East 307 353 9,300  Level Atlanta Center
10:29PM 35.3379 -80.4493 72° East  Level FlightAware Approximate
10:29PM 35.1328 -80.6306 71° East 302 348 11,400  Level Atlanta Center
10:30PM 35.3755 -80.3068 72° East  Level FlightAware Approximate
10:30PM 35.2186 -80.5711 29° Northeast 307 353 14,600  Level Atlanta Center
10:31PM 35.3086 -80.5061 31° Northeast 341 392 17,200 2,400 Climbing Atlanta Center
10:32PM 35.3875 -80.2953 65° Northeast 413 475 21,500 2,280 Climbing Washington Center
10:33PM 35.4264 -80.1572 71° East 425 489 23,700 2,280 Climbing Washington Center
10:34PM 35.4694 -80.0092 70° East 425 489 26,100 1,980 Climbing Washington Center
10:35PM 35.5042 -79.8581 74° East 443 510 27,700 1,380 Climbing Washington Center
10:36PM 35.5450 -79.7069 72° East 465 535 29,000 600 Climbing Washington Center
10:37PM 35.5919 -79.5486 70° East 490 564 29,000  Level Washington Center
10:38PM 35.6606 -79.4267 55° Northeast 477 549 29,000  Level Washington Center
10:39PM 35.7486 -79.2850 53° Northeast 477 549 29,000  Level Washington Center
10:40PM 35.8297 -79.1531 53° Northeast 477 549 29,000  Level Washington Center
10:41PM 35.9108 -79.0208 53° Northeast 477 549 29,000  Level Washington Center
10:42PM 35.9897 -78.8881 54° Northeast 477 549 29,000  Level Washington Center
10:43PM 36.0706 -78.7553 53° Northeast 477 549 29,000  Level Washington Center
10:44PM 36.1492 -78.6222 54° Northeast 477 549 29,000  Level Washington Center
10:45PM 36.2294 -78.4889 53° Northeast 477 549 29,000  Level Washington Center
10:46PM 36.3119 -78.3528 53° Northeast 477 549 29,000  Level Washington Center
10:47PM 36.3772 -78.2439 53° Northeast 477 549 29,000  Level Washington Center
10:48PM 36.4967 -78.1111 42° Northeast 477 549 29,000  Level Washington Center
10:49PM 36.6031 -78.0111 37° Northeast 471 542 29,000  Level Washington Center
10:50PM 36.7117 -77.9108 36° Northeast 477 549 29,000 -60 Level Washington Center
10:51PM 36.8200 -77.8078 37° Northeast 477 549 28,900  Descending Washington Center
10:52PM 36.9281 -77.7119 35° Northeast 482 555 29,000  Climbing Washington Center
10:53PM 37.0361 -77.6083 37° Northeast 482 555 29,000  Level Washington Center
10:54PM 37.1442 -77.5094 36° Northeast 482 555 29,000  Level Washington Center
10:55PM 37.2522 -77.4078 37° Northeast 482 555 29,000  Level Washington Center
10:56PM 37.3622 -77.3058 36° Northeast 482 555 29,000  Level Washington Center
10:57PM 37.4722 -77.2011 37° Northeast 482 555 29,000  Level Washington Center
10:58PM 37.5861 -77.0961 36° Northeast 488 562 29,000  Level Washington Center
10:59PM 37.6939 -76.9881 38° Northeast 488 562 29,000  Level Washington Center
11:00PM 37.7822 -76.9028 37° Northeast 488 562 29,000  Level Washington Center
11:01PM 37.9003 -76.7892 37° Northeast 493 567 29,000  Level Washington Center
11:02PM 38.0244 -76.6725 36° Northeast 499 574 29,000  Level Washington Center
11:03PM 38.1339 -76.5633 38° Northeast 494 568 29,000 -60 Level Washington Center
11:04PM 38.2453 -76.4564 37° Northeast 494 568 28,900  Descending Washington Center
11:05PM 38.3417 -76.3647 37° Northeast 494 568 29,000  Climbing Washington Center
11:06PM 38.4508 -76.2572 38° Northeast 494 568 29,000 960 Level Washington Center
11:07PM 38.5744 -76.1308 39° Northeast 499 574 31,000 900 Climbing Washington Center
11:08PM 38.6894 -76.0278 35° Northeast 509 586 30,800 -60 Descending Washington Center
11:09PM 38.8025 -75.9114 39° Northeast 514 592 30,900  Climbing Washington Center
11:10PM 38.9153 -75.8050 36° Northeast 508 585 30,900  Level Washington Center
11:11PM 39.0258 -75.6906 39° Northeast 508 585 30,900  Level Washington Center
11:12PM 39.1364 -75.5783 38° Northeast 508 585 30,900 -120 Level Washington Center
11:13PM 39.2467 -75.4683 38° Northeast 508 585 30,700 -600 Descending Washington Center
11:14PM 39.3550 -75.3608 37° Northeast 503 579 29,700 -900 Descending Washington Center
11:15PM 39.4608 -75.2528 38° Northeast 503 579 28,900 -300 Descending Washington Center
11:17PM 39.6411 -75.0681 38° Northeast 461 531 28,900  Level New York Center
11:18PM 39.7475 -74.9558 39° Northeast 466 536 28,900  Level New York Center
11:19PM 39.8447 -74.8561 38° Northeast 461 531 29,000  Climbing New York Center
11:20PM 39.9400 -74.7561 39° Northeast 472 543 29,000  Level New York Center
11:21PM 40.0414 -74.6508 38° Northeast 467 537 29,000  Level New York Center
11:22PM 40.1428 -74.5478 38° Northeast 462 532 29,000  Level New York Center
11:23PM 40.2442 -74.4419 39° Northeast 462 532 29,000  Level New York Center
11:24PM 40.3564 -74.3769 24° Northeast 462 532 29,000  Level New York Center
11:25PM 40.4803 -74.3481 10° North 440 506 29,000  Level New York Center
11:26PM 40.6042 -74.3189 10° North 440 506 29,000 -60 Level New York Center
11:28PM 40.8456 -74.2675 North 443 510 28,900 -180 Descending Boston Center
11:29PM 40.9669 -74.2378 10° North 438 504 28,600 -600 Descending Boston Center
11:30PM 41.0903 -74.2083 10° North 438 504 27,700 -960 Descending Boston Center
11:31PM 41.2136 -74.1811 North 444 511 26,700 -900 Descending Boston Center
11:32PM 41.3206 -74.1483 13° North 444 511 25,900 -360 Descending Boston Center
11:33PM 41.4458 -74.1211 North 444 511 26,000 -360 Climbing Boston Center
11:34PM 41.5839 -74.0886 10° North 452 520 25,200 -900 Descending Boston Center
11:35PM 41.7072 -74.0586 10° North 452 520 24,300 -1,800 Descending Boston Center
11:36PM 41.8139 -74.0361 North 447 514 21,700 -2,880 Descending Boston Center
11:37PM 41.9311 -74.0056 11° North 437 503 18,600 -3,240 Descending Boston Center
11:38PM 42.0167 -73.9853 10° North 416 479 16,500 -3,240 Descending Boston Center
11:38PM 42.0564 -73.9781 North 417 480 15,400 -3,480 Descending Boston Center
11:39PM 42.1339 -73.9519 14° North 405 466 12,700 -3,420 Descending Boston Center
11:39PM 42.1653 -73.9414 14° North 406 467 12,000 -1,680 Descending Boston Center
11:40PM 42.2344 -73.9178 14° North 357 411 11,000 -1,320 Descending Boston Center
11:40PM 42.2597 -73.9044 21° North 373 429 10,700 -1,800 Descending Boston Center
11:41PM 42.3267 -73.8836 13° North 294 338 9,200 -2,100 Descending Boston Center
11:42PM 42.4061 -73.8544 15° North 289 333 7,000 -1,800 Descending Boston Center
11:43PM 42.4772 -73.8306 14° North 267 307 5,600 -1,380 Descending Boston Center
11:44PM 42.5339 -73.8039 19° North 207 238 4,200 -1,200 Descending Boston Center
11:45PM 42.5839 -73.7992 North 164 189 3,200 -1,020 Descending Boston Center